createdAt,value
2016-03-21T00:00:12.989Z,55.6
2016-03-21T00:01:13.006Z,55.6
2016-03-21T00:02:13.025Z,55.51
2016-03-21T00:03:13.028Z,55.41
2016-03-21T00:04:13.031Z,55.13
2016-03-21T00:05:13.049Z,54.75
2016-03-21T00:06:13.051Z,54.94
2016-03-21T00:07:13.070Z,54.75
2016-03-21T00:08:13.088Z,54.85
2016-03-21T00:09:13.294Z,55.04
2016-03-21T00:10:13.110Z,55.51
2016-03-21T00:11:13.127Z,55.51
2016-03-21T00:12:13.115Z,55.51
2016-03-21T00:13:13.133Z,54.94
2016-03-21T00:14:13.151Z,54.75
2016-03-21T00:15:13.154Z,54.75
2016-03-21T00:16:13.188Z,55.22
2016-03-21T00:17:13.174Z,54.72
2016-03-21T00:18:13.193Z,55.79
2016-03-21T00:19:13.196Z,55.6
2016-03-21T00:20:13.215Z,55.79
2016-03-21T00:21:14.421Z,55.41
2016-03-21T00:22:13.235Z,56.15
2016-03-21T00:23:13.270Z,55.32
2016-03-21T00:24:13.256Z,55.04
2016-03-21T00:25:13.275Z,54.72
2016-03-21T00:26:13.277Z,55.04
2016-03-21T00:27:13.296Z,55.22
2016-03-21T00:28:13.298Z,54.44
2016-03-21T00:29:13.317Z,55.1
2016-03-21T00:30:13.350Z,55
2016-03-21T00:31:13.337Z,55.13
2016-03-21T00:32:13.356Z,54.85
2016-03-21T00:33:13.375Z,55.41
2016-03-21T00:34:13.377Z,55.32
2016-03-21T00:35:13.380Z,55.57
2016-03-21T00:36:13.397Z,54.94
2016-03-21T00:37:13.416Z,55.13
2016-03-21T00:38:13.419Z,55.32
2016-03-21T00:39:13.422Z,55.6
2016-03-21T00:40:13.441Z,55.32
2016-03-21T00:41:13.458Z,54.08
2016-03-21T00:42:13.461Z,53.8
2016-03-21T00:43:13.463Z,54.27
2016-03-21T00:44:13.482Z,53.89
2016-03-21T00:45:13.500Z,54.37
2016-03-21T00:46:13.518Z,54.27
2016-03-21T00:47:13.521Z,54.18
2016-03-21T00:48:13.524Z,53.61
2016-03-21T00:49:13.543Z,53.61
2016-03-21T00:50:13.545Z,53.61
2016-03-21T00:51:13.563Z,53.7
2016-03-21T00:52:13.565Z,53.61
2016-03-21T00:53:13.584Z,53.8
2016-03-21T00:54:13.587Z,53.42
2016-03-21T00:55:13.606Z,54.18
2016-03-21T00:56:13.624Z,54.18
2016-03-21T00:57:13.626Z,54.08
2016-03-21T00:58:13.645Z,53.52
2016-03-21T00:59:13.648Z,53.04
2016-03-21T01:00:13.665Z,53.52
2016-03-21T01:01:13.684Z,53.42
2016-03-21T01:02:13.670Z,53.42
2016-03-21T01:03:13.705Z,53.23
2016-03-21T01:04:13.708Z,52.85
2016-03-21T01:05:13.726Z,53.61
2016-03-21T01:06:13.744Z,53.89
2016-03-21T01:07:13.747Z,53.42
2016-03-21T01:08:13.750Z,53.61
2016-03-21T01:09:13.752Z,53.61
2016-03-21T01:10:13.755Z,53.42
2016-03-21T01:11:13.789Z,52.85
2016-03-21T01:12:13.791Z,52.66
2016-03-21T01:13:13.810Z,52.85
2016-03-21T01:14:16.125Z,53.61
2016-03-21T01:15:13.830Z,52.28
2016-03-21T01:16:13.865Z,52.76
2016-03-21T01:17:13.836Z,52.37
2016-03-21T01:18:13.871Z,52.56
2016-03-21T01:19:13.873Z,52.47
2016-03-21T01:20:13.829Z,52.09
2016-03-21T01:21:13.894Z,52.47
2016-03-21T01:22:13.913Z,52.28
2016-03-21T01:23:13.915Z,52
2016-03-21T01:24:13.933Z,52.28
2016-03-21T01:25:13.937Z,52.47
2016-03-21T01:26:13.954Z,52.37
2016-03-21T01:27:13.957Z,52.09
2016-03-21T01:28:13.960Z,52.37
2016-03-21T01:29:13.993Z,51.9
2016-03-21T01:30:14.012Z,51.9
2016-03-21T01:31:14.015Z,52.19
2016-03-21T01:32:14.002Z,52.56
2016-03-21T01:33:14.020Z,53.04
2016-03-21T01:34:14.039Z,53.04
2016-03-21T01:35:13.932Z,52.66
2016-03-21T01:36:14.059Z,52.56
2016-03-21T01:37:14.078Z,51.9
2016-03-21T01:38:14.097Z,52.47
2016-03-21T01:39:14.099Z,52.47
2016-03-21T01:40:14.117Z,52.09
2016-03-21T01:41:14.120Z,52.66
2016-03-21T01:42:14.138Z,52.85
2016-03-21T01:43:14.141Z,52.19
2016-03-21T01:44:14.144Z,51.9
2016-03-21T01:45:14.161Z,51.81
2016-03-21T01:46:14.164Z,52.66
2016-03-21T01:47:14.183Z,53.7
2016-03-21T01:48:14.232Z,53.61
2016-03-21T01:49:14.204Z,53.04
2016-03-21T01:50:14.207Z,52.47
2016-03-21T01:51:14.225Z,52.85
2016-03-21T01:52:14.228Z,52
2016-03-21T01:53:14.247Z,52.37
2016-03-21T01:54:14.249Z,52
2016-03-21T01:55:14.299Z,51.9
2016-03-21T01:56:14.271Z,52.19
2016-03-21T01:57:14.288Z,52.66
2016-03-21T01:58:14.322Z,51.43
2016-03-21T01:59:14.325Z,51.62
2016-03-21T02:00:14.327Z,52.37
2016-03-21T02:01:14.345Z,52.19
2016-03-21T02:02:14.365Z,52.95
2016-03-21T02:03:14.367Z,53.11
2016-03-21T02:04:14.370Z,53.11
2016-03-21T02:05:14.387Z,53.61
2016-03-21T02:06:14.390Z,52.37
2016-03-21T02:07:14.393Z,52
2016-03-21T02:08:14.411Z,51.9
2016-03-21T02:09:14.431Z,51.72
2016-03-21T02:10:14.448Z,51.62
2016-03-21T02:11:14.450Z,51.62
2016-03-21T02:12:14.453Z,52.19
2016-03-21T02:13:14.472Z,52.47
2016-03-21T02:14:14.475Z,51.43
2016-03-21T02:15:14.493Z,51.62
2016-03-21T02:16:14.496Z,51.9
2016-03-21T02:17:14.514Z,52.85
2016-03-21T02:18:14.516Z,52.56
2016-03-21T02:19:14.536Z,52.95
2016-03-21T02:20:14.553Z,53.04
2016-03-21T02:21:14.556Z,52.66
2016-03-21T02:22:14.558Z,52.37
2016-03-21T02:23:14.577Z,52.47
2016-03-21T02:24:14.596Z,52.66
2016-03-21T02:25:14.598Z,52.85
2016-03-21T02:26:14.616Z,53.68
2016-03-21T02:27:14.619Z,53.42
2016-03-21T02:28:14.637Z,53.77
2016-03-21T02:29:14.640Z,53.11
2016-03-21T02:30:14.657Z,53.02
2016-03-21T02:31:14.677Z,52.92
2016-03-21T02:32:14.679Z,52.64
2016-03-21T02:33:14.697Z,52.92
2016-03-21T02:34:14.715Z,53.02
2016-03-21T02:35:14.703Z,53.58
2016-03-21T02:36:14.721Z,54.06
2016-03-21T02:37:14.756Z,54.34
2016-03-21T02:38:14.743Z,55.13
2016-03-21T02:39:14.745Z,55.41
2016-03-21T02:40:14.747Z,55.1
2016-03-21T02:41:14.767Z,55.41
2016-03-21T02:42:14.784Z,55.79
2016-03-21T02:43:14.803Z,55.32
2016-03-21T02:44:14.820Z,55.19
2016-03-21T02:45:14.823Z,55.38
2016-03-21T02:46:14.826Z,55.7
2016-03-21T02:47:14.844Z,55.51
2016-03-21T02:48:14.848Z,55.38
2016-03-21T02:49:14.866Z,55.76
2016-03-21T02:50:14.869Z,55.86
2016-03-21T02:51:14.886Z,55.86
2016-03-21T02:52:14.889Z,57.09
2016-03-21T02:53:14.908Z,56.52
2016-03-21T02:54:14.910Z,56.81
2016-03-21T02:55:14.929Z,56.24
2016-03-21T02:56:14.931Z,56.74
2016-03-21T02:57:14.950Z,57.09
2016-03-21T02:58:14.968Z,56.24
2016-03-21T02:59:14.971Z,56.27
2016-03-21T03:00:14.974Z,56.81
2016-03-21T03:01:14.991Z,56.62
2016-03-21T03:02:15.010Z,56.81
2016-03-21T03:03:15.013Z,56.43
2016-03-21T03:04:15.016Z,56.43
2016-03-21T03:05:15.049Z,56.43
2016-03-21T03:06:15.051Z,56.52
2016-03-21T03:07:15.039Z,57.09
2016-03-21T03:08:15.072Z,56.34
2016-03-21T03:09:15.074Z,55.57
2016-03-21T03:10:15.094Z,55.13
2016-03-21T03:11:15.096Z,55.7
2016-03-21T03:12:15.099Z,55.89
2016-03-21T03:13:15.116Z,56.08
2016-03-21T03:14:15.135Z,55.7
2016-03-21T03:15:15.138Z,55.6
2016-03-21T03:16:15.141Z,56.08
2016-03-21T03:17:15.158Z,56.27
2016-03-21T03:18:15.160Z,55.98
2016-03-21T03:19:15.180Z,55.41
2016-03-21T03:20:15.245Z,55.7
2016-03-21T03:21:15.201Z,55.98
2016-03-21T03:22:15.204Z,55.79
2016-03-21T03:23:15.221Z,55.41
2016-03-21T03:24:15.240Z,56.55
2016-03-21T03:25:15.242Z,56.27
2016-03-21T03:26:15.246Z,56.34
2016-03-21T03:27:15.310Z,56.55
2016-03-21T03:28:15.266Z,56.24
2016-03-21T03:29:15.284Z,56.34
2016-03-21T03:30:15.303Z,56.52
2016-03-21T03:31:15.306Z,56.99
2016-03-21T03:32:15.324Z,57.28
2016-03-21T03:33:15.327Z,55.96
2016-03-21T03:34:15.345Z,56.15
2016-03-21T03:35:15.379Z,56.99
2016-03-21T03:36:15.366Z,58.04
2016-03-21T03:37:15.369Z,58.04
2016-03-21T03:38:15.387Z,57.95
2016-03-21T03:39:15.389Z,56.99
2016-03-21T03:40:15.392Z,57.57
2016-03-21T03:41:15.410Z,57.57
2016-03-21T03:42:15.430Z,57.47
2016-03-21T03:43:15.432Z,57.19
2016-03-21T03:44:15.450Z,56.9
2016-03-21T03:45:15.469Z,56.9
2016-03-21T03:46:15.486Z,56.99
2016-03-21T03:47:15.474Z,57.28
2016-03-21T03:48:15.524Z,56.81
2016-03-21T03:49:15.511Z,57.38
2016-03-21T03:50:15.529Z,57.76
2016-03-21T03:51:15.515Z,57.38
2016-03-21T03:52:15.534Z,57.47
2016-03-21T03:53:15.552Z,56.9
2016-03-21T03:54:15.554Z,56.81
2016-03-21T03:55:15.574Z,57.47
2016-03-21T03:56:15.576Z,57.47
2016-03-21T03:57:15.595Z,56.52
2016-03-21T03:58:15.612Z,57.57
2016-03-21T03:59:15.600Z,57.28
2016-03-21T04:00:15.618Z,57.76
2016-03-21T04:01:15.636Z,57.57
2016-03-21T04:02:15.654Z,57.19
2016-03-21T04:03:15.673Z,57.47
2016-03-21T04:04:15.676Z,57.76
2016-03-21T04:05:15.694Z,56.99
2016-03-21T04:06:15.681Z,56.15
2016-03-21T04:07:15.700Z,56.99
2016-03-21T04:08:15.702Z,57.57
2016-03-21T04:09:15.720Z,57.85
2016-03-21T04:10:15.722Z,57.47
2016-03-21T04:11:15.742Z,57.66
2016-03-21T04:12:15.744Z,56.99
2016-03-21T04:13:15.763Z,56.99
2016-03-21T04:14:15.765Z,57.38
2016-03-21T04:15:15.783Z,56.99
2016-03-21T04:16:15.786Z,57.19
2016-03-21T04:17:15.804Z,57.85
2016-03-21T04:18:15.823Z,57.66
2016-03-21T04:19:15.825Z,57.57
2016-03-21T04:20:15.859Z,57.85
2016-03-21T04:21:15.846Z,57.85
2016-03-21T04:22:15.865Z,57.95
2016-03-21T04:23:15.868Z,57.76
2016-03-21T04:24:15.885Z,57.09
2016-03-21T04:25:15.888Z,56.71
2016-03-21T04:26:15.923Z,56.99
2016-03-21T04:27:15.909Z,57.57
2016-03-21T04:28:15.928Z,57.28
2016-03-21T04:29:15.946Z,58.23
2016-03-21T04:30:15.964Z,59.08
2016-03-21T04:31:15.951Z,58.33
2016-03-21T04:32:15.953Z,58.51
2016-03-21T04:33:15.973Z,57.95
2016-03-21T04:34:15.975Z,57.95
2016-03-21T04:35:15.993Z,58.23
2016-03-21T04:36:16.011Z,58.23
2016-03-21T04:37:16.030Z,58.61
2016-03-21T04:38:16.048Z,58.23
2016-03-21T04:39:16.050Z,58.14
2016-03-21T04:40:16.039Z,58.42
2016-03-21T04:41:16.056Z,58.8
2016-03-21T04:42:16.075Z,57.85
2016-03-21T04:43:16.077Z,58.7
2016-03-21T04:44:16.096Z,58.51
2016-03-21T04:45:16.114Z,58.04
2016-03-21T04:46:16.116Z,57.95
2016-03-21T04:47:16.135Z,57.19
2016-03-21T04:48:16.122Z,57.76
2016-03-21T04:49:16.141Z,57.85
2016-03-21T04:50:16.205Z,57.47
2016-03-21T04:51:16.161Z,58.04
2016-03-21T04:52:16.180Z,57.85
2016-03-21T04:53:16.182Z,58.04
2016-03-21T04:54:16.201Z,58.14
2016-03-21T04:55:16.203Z,58.61
2016-03-21T04:56:16.221Z,58.14
2016-03-21T04:57:16.224Z,57.95
2016-03-21T04:58:16.242Z,58.04
2016-03-21T04:59:16.245Z,57.95
2016-03-21T05:00:16.264Z,57.85
2016-03-21T05:01:16.282Z,57.09
2016-03-21T05:02:16.284Z,57.19
2016-03-21T05:03:16.304Z,58.42
2016-03-21T05:04:16.306Z,58.04
2016-03-21T05:05:16.355Z,58.14
2016-03-21T05:06:16.327Z,58.33
2016-03-21T05:07:16.345Z,58.23
2016-03-21T05:08:16.348Z,58.42
2016-03-21T05:09:16.366Z,58.42
2016-03-21T05:10:16.369Z,57.85
2016-03-21T05:11:16.387Z,57.76
2016-03-21T05:12:16.390Z,58.8
2016-03-21T05:13:16.392Z,58.61
2016-03-21T05:14:16.411Z,58.51
2016-03-21T05:15:16.413Z,58.7
2016-03-21T05:16:16.447Z,58.61
2016-03-21T05:17:16.434Z,58.7
2016-03-21T05:18:16.453Z,59.08
2016-03-21T05:19:16.455Z,59.08
2016-03-21T05:20:16.520Z,58.7
2016-03-21T05:21:16.476Z,58.89
2016-03-21T05:22:16.494Z,58.99
2016-03-21T05:23:16.497Z,58.7
2016-03-21T05:24:16.515Z,58.61
2016-03-21T05:25:16.535Z,59.18
2016-03-21T05:26:16.537Z,59.18
2016-03-21T05:27:16.539Z,58.99
2016-03-21T05:28:16.557Z,58.33
2016-03-21T05:29:16.576Z,58.14
2016-03-21T05:30:16.579Z,58.14
2016-03-21T05:31:16.581Z,58.14
2016-03-21T05:32:16.600Z,58.04
2016-03-21T05:33:16.618Z,58.04
2016-03-21T05:34:16.652Z,58.42
2016-03-21T05:35:16.654Z,58.51
2016-03-21T05:36:16.642Z,59.27
2016-03-21T05:37:16.645Z,58.7
2016-03-21T05:38:16.678Z,58.23
2016-03-21T05:39:16.681Z,58.7
2016-03-21T05:40:16.684Z,58.8
2016-03-21T05:41:16.733Z,58.8
2016-03-21T05:42:16.705Z,58.51
2016-03-21T05:43:16.722Z,58.17
2016-03-21T05:44:16.742Z,58.23
2016-03-21T05:45:16.744Z,58.33
2016-03-21T05:46:16.763Z,58.99
2016-03-21T05:47:16.765Z,59.18
2016-03-21T05:48:16.800Z,58.8
2016-03-21T05:49:16.786Z,58.8
2016-03-21T05:50:16.819Z,58.64
2016-03-21T05:51:16.808Z,58.83
2016-03-21T05:52:16.810Z,58.23
2016-03-21T05:53:16.828Z,57.98
2016-03-21T05:54:16.846Z,58.14
2016-03-21T05:55:16.849Z,58.17
2016-03-21T05:56:16.852Z,58.23
2016-03-21T05:57:16.870Z,58.54
2016-03-21T05:58:16.888Z,58.26
2016-03-21T05:59:16.891Z,58.04
2016-03-21T06:00:16.909Z,57.88
2016-03-21T06:01:16.912Z,58.07
2016-03-21T06:02:16.930Z,57.88
2016-03-21T06:03:16.949Z,57.4
2016-03-21T06:04:16.951Z,58.04
2016-03-21T06:05:16.954Z,57.69
2016-03-21T06:06:16.972Z,57.69
2016-03-21T06:07:16.975Z,57.98
2016-03-21T06:08:16.978Z,57.69
2016-03-21T06:09:16.995Z,57.4
2016-03-21T06:10:16.999Z,57.31
2016-03-21T06:11:17.017Z,57.5
2016-03-21T06:12:17.036Z,57.03
2016-03-21T06:13:17.038Z,57.59
2016-03-21T06:14:17.056Z,57.69
2016-03-21T06:15:17.059Z,56.93
2016-03-21T06:16:17.077Z,57.21
2016-03-21T06:17:17.080Z,57.4
2016-03-21T06:18:17.099Z,57.5
2016-03-21T06:19:17.101Z,57.21
2016-03-21T06:20:17.104Z,57.4
2016-03-21T06:21:17.122Z,57.59
2016-03-21T06:22:17.141Z,57.88
2016-03-21T06:23:17.143Z,57.5
2016-03-21T06:24:17.161Z,57.59
2016-03-21T06:25:17.164Z,56.74
2016-03-21T06:26:17.183Z,56.84
2016-03-21T06:27:17.201Z,57.03
2016-03-21T06:28:17.203Z,57.21
2016-03-21T06:29:17.207Z,57.12
2016-03-21T06:30:17.224Z,56.93
2016-03-21T06:31:17.227Z,57.03
2016-03-21T06:32:17.246Z,57.12
2016-03-21T06:33:17.248Z,56.74
2016-03-21T06:34:17.267Z,56.84
2016-03-21T06:35:17.269Z,57.79
2016-03-21T06:36:17.287Z,57.31
2016-03-21T06:37:17.321Z,57.21
2016-03-21T06:38:17.340Z,57.98
2016-03-21T06:39:17.326Z,57.88
2016-03-21T06:40:17.329Z,57.79
2016-03-21T06:41:17.348Z,56.93
2016-03-21T06:42:17.350Z,56.74
2016-03-21T06:43:17.369Z,56.93
2016-03-21T06:44:17.387Z,57.59
2016-03-21T06:45:17.405Z,58.07
2016-03-21T06:46:17.392Z,57.98
2016-03-21T06:47:17.411Z,57.21
2016-03-21T06:48:17.430Z,58.07
2016-03-21T06:49:17.447Z,58.45
2016-03-21T06:50:17.450Z,57.98
2016-03-21T06:51:17.469Z,57.98
2016-03-21T06:52:17.472Z,57.21
2016-03-21T06:53:17.474Z,57.5
2016-03-21T06:54:17.477Z,57.59
2016-03-21T06:55:17.495Z,57.4
2016-03-21T06:56:17.513Z,56.55
2016-03-21T06:57:17.515Z,56.36
2016-03-21T06:58:17.535Z,56.65
2016-03-21T06:59:17.552Z,56.65
2016-03-21T07:00:17.555Z,57.03
2016-03-21T07:01:17.557Z,57.03
2016-03-21T07:02:17.576Z,57.62
2016-03-21T07:03:17.735Z,56.96
2016-03-21T07:04:17.597Z,56.49
2016-03-21T07:05:17.616Z,56.01
2016-03-21T07:06:17.618Z,56.87
2016-03-21T07:07:17.628Z,56.58
2016-03-21T07:08:17.662Z,56.58
2016-03-21T07:09:17.665Z,56.77
2016-03-21T07:10:17.668Z,56.2
2016-03-21T07:11:17.686Z,56.68
2016-03-21T07:12:17.704Z,56.58
2016-03-21T07:13:17.754Z,56.1
2016-03-21T07:14:17.709Z,56.39
2016-03-21T07:15:17.728Z,56.49
2016-03-21T07:16:17.730Z,56.68
2016-03-21T07:17:17.750Z,55.16
2016-03-21T07:18:17.752Z,55.82
2016-03-21T07:19:17.770Z,55.63
2016-03-21T07:20:17.820Z,55.54
2016-03-21T07:21:17.791Z,55.82
2016-03-21T07:22:17.794Z,55.73
2016-03-21T07:23:17.812Z,55.44
2016-03-21T07:24:17.831Z,55.37
2016-03-21T07:25:17.833Z,55.06
2016-03-21T07:26:17.851Z,54.78
2016-03-21T07:27:17.869Z,54.68
2016-03-21T07:28:17.872Z,55.16
2016-03-21T07:29:17.891Z,54.71
2016-03-21T07:30:17.893Z,54.52
2016-03-21T07:31:17.913Z,54.97
2016-03-21T07:32:17.930Z,55.09
2016-03-21T07:33:17.948Z,55.18
2016-03-21T07:34:17.935Z,54.8
2016-03-21T07:35:17.970Z,55.28
2016-03-21T07:36:17.972Z,54.71
2016-03-21T07:37:17.990Z,54.8
2016-03-21T07:38:17.993Z,54.99
2016-03-21T07:39:17.996Z,54.43
2016-03-21T07:40:18.029Z,54.14
2016-03-21T07:41:18.032Z,54.33
2016-03-21T07:42:18.035Z,54.9
2016-03-21T07:43:18.053Z,54.61
2016-03-21T07:44:18.056Z,54.43
2016-03-21T07:45:18.067Z,53.85
2016-03-21T07:46:18.071Z,53.66
2016-03-21T07:47:18.059Z,52.72
2016-03-21T07:48:18.065Z,52.81
2016-03-21T07:49:18.069Z,53.19
2016-03-21T07:50:18.064Z,53.38
2016-03-21T07:51:18.092Z,52.53
2016-03-21T07:52:18.089Z,52.72
2016-03-21T07:53:18.088Z,52.62
2016-03-21T07:54:18.085Z,52.91
2016-03-21T07:55:18.099Z,52.91
2016-03-21T07:56:18.116Z,52.62
2016-03-21T07:57:18.117Z,52.33
2016-03-21T07:58:18.133Z,51.48
2016-03-21T07:59:18.134Z,52.33
2016-03-21T08:00:18.151Z,52.24
2016-03-21T08:01:18.153Z,51.67
2016-03-21T08:02:18.171Z,50.53
2016-03-21T08:03:18.189Z,52.05
2016-03-21T08:04:18.206Z,51.57
2016-03-21T08:05:18.208Z,52.14
2016-03-21T08:06:18.226Z,52.14
2016-03-21T08:07:18.245Z,51.67
2016-03-21T08:08:18.247Z,52.33
2016-03-21T08:09:18.250Z,51.48
2016-03-21T08:10:18.284Z,51.51
2016-03-21T08:11:18.490Z,50.05
2016-03-21T08:12:18.305Z,49.79
2016-03-21T08:13:18.323Z,49.6
2016-03-21T08:14:18.327Z,50.18
2016-03-21T08:15:18.329Z,50.08
2016-03-21T08:16:18.347Z,49.98
2016-03-21T08:17:18.381Z,50.46
2016-03-21T08:18:18.368Z,50.56
2016-03-21T08:19:18.387Z,50.65
2016-03-21T08:20:18.389Z,51.41
2016-03-21T08:21:18.407Z,50.56
2016-03-21T08:22:18.426Z,50.08
2016-03-21T08:23:18.428Z,50.18
2016-03-21T08:24:18.447Z,49.13
2016-03-21T08:25:18.450Z,49.22
2016-03-21T08:26:20.828Z,49.32
2016-03-21T08:27:18.470Z,48.37
2016-03-21T08:28:18.489Z,48.37
2016-03-21T08:29:18.507Z,48.08
2016-03-21T08:30:18.525Z,48.75
2016-03-21T08:31:18.527Z,48.75
2016-03-21T08:32:18.547Z,49.51
2016-03-21T08:33:18.564Z,48.37
2016-03-21T08:34:18.567Z,48.56
2016-03-21T08:35:18.586Z,49.13
2016-03-21T08:36:18.589Z,49.13
2016-03-21T08:37:18.622Z,48.08
2016-03-21T08:38:18.624Z,47.89
2016-03-21T08:39:18.644Z,49.04
2016-03-21T08:40:18.646Z,49.41
2016-03-21T08:41:18.665Z,49.32
2016-03-21T08:42:18.682Z,49.7
2016-03-21T08:43:18.701Z,49.41
2016-03-21T08:44:18.923Z,49.41
2016-03-21T08:45:18.706Z,48.66
2016-03-21T08:46:18.725Z,48.56
2016-03-21T08:47:18.743Z,47.89
2016-03-21T08:48:18.762Z,48.85
2016-03-21T08:49:18.764Z,49.41
2016-03-21T08:50:18.782Z,48.85
2016-03-21T08:51:18.801Z,48.56
2016-03-21T08:52:18.803Z,49.04
2016-03-21T08:53:18.806Z,49.13
2016-03-21T08:54:18.825Z,48.37
2016-03-21T08:55:18.842Z,47.89
2016-03-21T08:56:18.846Z,48.46
2016-03-21T08:57:18.864Z,48.46
2016-03-21T08:58:18.867Z,48.85
2016-03-21T08:59:18.884Z,48.94
2016-03-21T09:00:18.934Z,48.94
2016-03-21T09:01:18.906Z,48.56
2016-03-21T09:02:18.939Z,48.37
2016-03-21T09:03:18.942Z,48.37
2016-03-21T09:04:18.960Z,47.52
2016-03-21T09:05:18.963Z,47.73
2016-03-21T09:06:18.982Z,47.71
2016-03-21T09:07:19.000Z,47.89
2016-03-21T09:08:19.019Z,48.3
2016-03-21T09:09:19.021Z,48.21
2016-03-21T09:10:19.039Z,48.01
2016-03-21T09:11:19.042Z,47.89
2016-03-21T09:12:19.060Z,47.92
2016-03-21T09:13:19.062Z,47.8
2016-03-21T09:14:19.089Z,48.21
2016-03-21T09:15:19.091Z,47.25
2016-03-21T09:16:19.109Z,47.16
2016-03-21T09:17:19.127Z,47.16
2016-03-21T09:18:19.131Z,47.73
2016-03-21T09:19:19.148Z,47.06
2016-03-21T09:20:19.150Z,47.44
2016-03-21T09:21:19.200Z,46.97
2016-03-21T09:22:19.188Z,46.88
2016-03-21T09:23:19.190Z,47.06
2016-03-21T09:24:19.209Z,47.54
2016-03-21T09:25:19.227Z,47.82
2016-03-21T09:26:19.246Z,47.44
2016-03-21T09:27:19.248Z,48.11
2016-03-21T09:28:19.266Z,46.4
2016-03-21T09:29:19.269Z,46.59
2016-03-21T09:30:19.287Z,46.88
2016-03-21T09:31:19.305Z,46.01
2016-03-21T09:32:19.324Z,48.3
2016-03-21T09:33:19.326Z,47.82
2016-03-21T09:34:19.377Z,47.34
2016-03-21T09:36:19.382Z,46.01
2016-03-21T09:37:19.368Z,47.25
2016-03-21T09:38:19.387Z,47.34
2016-03-21T09:39:19.406Z,46.2
2016-03-21T09:40:19.408Z,47.44
2016-03-21T09:41:19.473Z,46.88
2016-03-21T09:42:19.444Z,45.35
2016-03-21T09:43:19.494Z,46.01
2016-03-21T09:44:19.465Z,45.83
2016-03-21T09:45:19.484Z,45.64
2016-03-21T09:46:19.518Z,46.2
2016-03-21T09:47:19.536Z,45.37
2016-03-21T09:48:19.523Z,46.11
2016-03-21T09:49:19.542Z,45.28
2016-03-21T09:50:19.560Z,45.16
2016-03-21T09:51:19.578Z,45.35
2016-03-21T09:52:19.581Z,45.54
2016-03-21T09:53:19.584Z,45.35
2016-03-21T09:54:19.602Z,45.16
2016-03-21T09:55:19.605Z,44.97
2016-03-21T09:56:19.638Z,45.16
2016-03-21T09:57:19.641Z,44.68
2016-03-21T09:58:19.659Z,44.9
2016-03-21T09:59:19.678Z,43.66
2016-03-21T10:00:19.680Z,44.52
2016-03-21T10:01:19.698Z,44.42
2016-03-21T10:02:19.717Z,43.66
2016-03-21T10:03:19.720Z,42.9
2016-03-21T10:04:19.754Z,43.95
2016-03-21T10:05:19.771Z,43.19
2016-03-21T10:06:19.838Z,43.95
2016-03-21T10:07:19.778Z,43.47
2016-03-21T10:08:19.812Z,42.8
2016-03-21T10:09:19.800Z,42.71
2016-03-21T10:10:19.818Z,43.09
2016-03-21T10:11:19.836Z,43.66
2016-03-21T10:12:19.854Z,44.64
2016-03-21T10:13:19.873Z,44.82
2016-03-21T10:14:19.875Z,43.87
2016-03-21T10:15:19.909Z,43.02
2016-03-21T10:16:19.896Z,43.61
2016-03-21T10:17:19.915Z,43.13
2016-03-21T10:18:19.932Z,40.75
2016-03-21T10:19:19.982Z,41.61
2016-03-21T10:20:19.970Z,41.8
2016-03-21T10:21:20.035Z,41.52
2016-03-21T10:22:19.990Z,41.44
2016-03-21T10:23:20.009Z,41.82
2016-03-21T10:24:20.028Z,40.87
2016-03-21T10:25:20.046Z,39.82
2016-03-21T10:26:20.064Z,40.3
2016-03-21T10:27:20.098Z,39.73
2016-03-21T10:28:20.084Z,40.3
2016-03-21T10:29:20.119Z,39.84
2016-03-21T10:30:20.121Z,40.32
2016-03-21T10:31:20.139Z,39.75
2016-03-21T10:32:20.142Z,40.12
2016-03-21T10:33:20.191Z,38.12
2016-03-21T10:34:20.195Z,36.9
2016-03-21T10:35:20.197Z,36.9
2016-03-21T10:36:20.263Z,37.19
2016-03-21T10:37:20.234Z,37.66
2016-03-21T10:38:20.236Z,38.05
2016-03-21T10:39:20.271Z,37.48
2016-03-21T10:40:20.305Z,37.48
2016-03-21T10:41:20.355Z,37.4
2016-03-21T10:42:20.310Z,37.59
2016-03-21T10:43:20.328Z,37.59
2016-03-21T10:44:20.331Z,36.83
2016-03-21T10:45:20.349Z,36.08
2016-03-21T10:46:20.383Z,35.03
2016-03-21T10:47:20.386Z,34.65
2016-03-21T10:48:20.404Z,35.41
2016-03-21T10:49:20.423Z,34.55
2016-03-21T10:50:20.440Z,32.76
2016-03-21T10:51:20.460Z,33.81
2016-03-21T10:52:20.478Z,31.61
2016-03-21T10:53:20.495Z,33.12
2016-03-21T10:54:20.514Z,31.71
2016-03-21T10:55:20.517Z,32.93
2016-03-21T10:56:20.534Z,32.28
2016-03-21T10:57:20.585Z,31.13
2016-03-21T10:58:20.572Z,31.04
2016-03-21T10:59:20.606Z,30.85
2016-03-21T11:00:20.624Z,30.75
2016-03-21T11:01:20.627Z,32.95
2016-03-21T11:02:20.645Z,32.95
2016-03-21T11:03:20.678Z,32.09
2016-03-21T11:04:20.681Z,32.1
2016-03-21T11:05:20.700Z,31.72
2016-03-21T11:06:20.733Z,30.78
2016-03-21T11:07:20.744Z,30.59
2016-03-21T11:08:20.763Z,29.73
2016-03-21T11:09:20.781Z,29.44
2016-03-21T11:10:20.816Z,29.83
2016-03-21T11:11:20.678Z,30
2016-03-21T11:12:20.836Z,28.97
2016-03-21T11:13:20.870Z,30.11
2016-03-21T11:14:20.872Z,30.59
2016-03-21T11:15:20.891Z,30.02
2016-03-21T11:16:20.925Z,28.39
2016-03-21T11:17:20.927Z,28.97
2016-03-21T11:18:20.961Z,30.03
2016-03-21T11:19:20.965Z,29.74
2016-03-21T11:20:20.982Z,29.84
2016-03-21T11:21:20.860Z,29.08
2016-03-21T11:22:21.035Z,27.73
2016-03-21T11:23:21.037Z,27.73
2016-03-21T11:24:21.056Z,28.59
2016-03-21T11:25:21.106Z,28.79
2016-03-21T11:26:21.109Z,28.42
2016-03-21T11:27:21.111Z,28.23
2016-03-21T11:28:21.128Z,28.23
2016-03-21T11:29:21.163Z,28.23
2016-03-21T11:30:21.165Z,27.94
2016-03-21T11:31:21.056Z,26.41
2016-03-21T11:32:21.498Z,27.64
2016-03-21T11:33:21.219Z,28.41
2016-03-21T11:34:21.280Z,28.5
2016-03-21T11:35:21.261Z,28.42
2016-03-21T11:36:21.452Z,28.33
2016-03-21T11:37:21.313Z,28.23
2016-03-21T11:38:21.316Z,25.93
2016-03-21T11:39:21.334Z,27.07
2016-03-21T11:40:21.400Z,26.78
2016-03-21T11:41:21.370Z,27.16
2016-03-21T11:42:21.406Z,27.26
2016-03-21T11:43:21.423Z,27.26
2016-03-21T11:44:21.442Z,27.36
2016-03-21T11:45:21.444Z,28.02
2016-03-21T11:46:21.478Z,27.64
2016-03-21T11:47:21.497Z,28.2
2016-03-21T11:48:21.530Z,27.62
2016-03-21T11:49:21.549Z,26.86
2016-03-21T11:50:21.552Z,27.71
2016-03-21T11:51:21.569Z,29.43
2016-03-21T11:52:21.588Z,28.01
2016-03-21T11:53:21.622Z,28.3
2016-03-21T11:54:21.655Z,28.69
2016-03-21T11:55:21.658Z,28.12
2016-03-21T11:56:21.661Z,28.59
2016-03-21T11:57:21.696Z,28.12
2016-03-21T11:58:21.713Z,28.59
2016-03-21T11:59:21.716Z,27.84
2016-03-21T12:00:21.750Z,27.66
2016-03-21T12:01:21.956Z,27.27
2016-03-21T12:02:21.772Z,27.37
2016-03-21T12:03:21.837Z,27.75
2016-03-21T12:04:21.823Z,26.04
2016-03-21T12:05:21.857Z,24.6
2016-03-21T12:06:21.860Z,25.36
2016-03-21T12:07:21.897Z,25.36
2016-03-21T12:08:21.901Z,26.01
2016-03-21T12:09:21.935Z,25.16
2016-03-21T12:10:21.938Z,25.16
2016-03-21T12:11:22.002Z,25.36
2016-03-21T12:12:22.005Z,26.51
2016-03-21T12:13:22.008Z,25.45
2016-03-21T12:14:22.010Z,26.03
2016-03-21T12:15:22.029Z,26.01
2016-03-21T12:16:22.063Z,25.82
2016-03-21T12:17:22.113Z,26.01
2016-03-21T12:18:22.100Z,26.39
2016-03-21T12:19:22.133Z,28.11
2016-03-21T12:20:22.229Z,28.01
2016-03-21T12:21:22.155Z,29.17
2016-03-21T12:22:22.173Z,29.27
2016-03-21T12:23:22.190Z,28.22
2016-03-21T12:24:22.225Z,27.66
2016-03-21T12:25:22.243Z,27.08
2016-03-21T12:26:22.261Z,26.41
2016-03-21T12:27:22.280Z,25.65
2016-03-21T12:28:22.298Z,24.98
2016-03-21T12:29:22.301Z,25.16
2016-03-21T12:30:22.320Z,25.15
2016-03-21T12:31:22.353Z,25.06
2016-03-21T12:32:22.355Z,25.44
2016-03-21T12:33:22.389Z,26.19
2016-03-21T12:34:22.408Z,27.34
2016-03-21T12:35:22.426Z,27.52
2016-03-21T12:36:22.445Z,27.23
2016-03-21T12:37:22.464Z,26.85
2016-03-21T12:38:22.497Z,27.8
2016-03-21T12:39:22.500Z,28.28
2016-03-21T12:40:22.518Z,27.61
2016-03-21T12:41:22.536Z,27.9
2016-03-21T12:42:22.555Z,28
2016-03-21T12:43:22.572Z,28.09
2016-03-21T12:44:22.591Z,28.86
2016-03-21T12:45:22.610Z,28.57
2016-03-21T12:46:22.627Z,27.71
2016-03-21T12:47:22.646Z,28
2016-03-21T12:48:22.665Z,27.23
2016-03-21T12:49:22.682Z,27.52
2016-03-21T12:50:22.701Z,27.98
2016-03-21T12:51:22.718Z,28.09
2016-03-21T12:52:22.737Z,29.81
2016-03-21T12:53:22.756Z,29.62
2016-03-21T12:54:22.774Z,27.8
2016-03-21T12:55:22.793Z,27.42
2016-03-21T12:56:22.811Z,27.61